createdAt,value
2023-01-13T00:01:38.280Z,78.00
2023-01-13T00:04:05.038Z,77.57
2023-01-13T00:06:31.610Z,78.25
2023-01-13T00:08:58.039Z,77.84
2023-01-13T00:11:25.990Z,78.04
2023-01-13T00:13:52.330Z,77.70
2023-01-13T00:16:19.442Z,78.00
2023-01-13T00:18:46.784Z,77.66
2023-01-13T00:21:16.069Z,77.94
2023-01-13T00:23:42.999Z,77.74
2023-01-13T00:26:16.190Z,77.79
2023-01-13T00:28:42.625Z,77.48
2023-01-13T00:31:11.417Z,77.07
2023-01-13T00:33:38.670Z,77.16
2023-01-13T00:36:07.249Z,76.81
2023-01-13T00:38:35.773Z,76.90
2023-01-13T00:41:06.844Z,76.73
2023-01-13T00:43:35.107Z,77.21
2023-01-13T00:46:02.048Z,76.57
2023-01-13T00:48:29.643Z,76.90
2023-01-13T00:50:56.887Z,77.19
2023-01-13T00:53:23.445Z,77.08
2023-01-13T00:55:50.047Z,77.07
2023-01-13T00:58:16.409Z,77.32
2023-01-13T01:00:42.795Z,77.19
2023-01-13T01:03:12.162Z,76.60
2023-01-13T01:05:39.885Z,77.15
2023-01-13T01:08:06.281Z,76.86
2023-01-13T01:10:32.695Z,77.52
2023-01-13T01:12:59.065Z,77.04
2023-01-13T01:15:25.535Z,77.46
2023-01-13T01:17:52.140Z,76.77
2023-01-13T01:20:18.614Z,77.55
2023-01-13T01:22:44.990Z,77.37
2023-01-13T01:25:11.325Z,76.71
2023-01-13T01:27:37.724Z,77.02
2023-01-13T01:30:04.507Z,77.42
2023-01-13T01:32:33.276Z,77.06
2023-01-13T01:34:59.630Z,76.98
2023-01-13T01:37:26.056Z,77.80
2023-01-13T01:39:52.414Z,78.12
2023-01-13T01:42:37.677Z,77.50
2023-01-13T01:45:22.738Z,77.53
2023-01-13T01:47:55.208Z,77.52
2023-01-13T01:50:22.639Z,77.12
2023-01-13T01:53:24.912Z,77.53
2023-01-13T01:55:51.367Z,78.55
2023-01-13T01:58:38.049Z,78.28
2023-01-13T02:01:04.745Z,77.76
2023-01-13T02:03:31.256Z,77.96
2023-01-13T02:05:57.658Z,78.30
2023-01-13T02:08:24.216Z,78.20
2023-01-13T02:10:53.847Z,77.99
2023-01-13T02:13:22.569Z,78.02
2023-01-13T02:16:11.854Z,78.20
2023-01-13T02:19:04.237Z,77.50
2023-01-13T02:22:01.655Z,77.36
2023-01-13T02:24:54.413Z,76.96
2023-01-13T02:27:43.936Z,77.87
2023-01-13T02:30:49.470Z,77.20
2023-01-13T02:33:34.346Z,77.16
2023-01-13T02:36:24.787Z,77.62
2023-01-13T02:39:16.413Z,76.54
2023-01-13T02:42:21.599Z,76.68
2023-01-13T02:44:55.856Z,76.72
2023-01-13T02:47:26.313Z,76.05
2023-01-13T02:50:05.977Z,76.67
2023-01-13T02:52:44.196Z,76.19
2023-01-13T02:55:19.695Z,76.16
2023-01-13T02:57:48.257Z,76.67
2023-01-13T03:00:17.032Z,76.57
2023-01-13T03:02:43.434Z,76.68
2023-01-13T03:05:14.824Z,76.60
2023-01-13T03:08:03.558Z,76.35
2023-01-13T03:10:34.221Z,76.10
2023-01-13T03:13:36.831Z,75.48
2023-01-13T03:16:27.870Z,76.33
2023-01-13T03:19:15.943Z,76.17
2023-01-13T03:21:56.650Z,76.13
2023-01-13T03:24:34.349Z,75.97
2023-01-13T03:27:15.878Z,75.44
2023-01-13T03:30:14.114Z,75.16
2023-01-13T03:32:49.150Z,75.01
2023-01-13T03:35:32.781Z,74.86
2023-01-13T03:38:23.876Z,74.82
2023-01-13T03:40:56.169Z,75.23
2023-01-13T03:44:03.527Z,74.71
2023-01-13T03:46:37.196Z,75.17
2023-01-13T03:49:07.252Z,74.79
2023-01-13T03:51:35.983Z,74.65
2023-01-13T03:54:08.889Z,74.70
2023-01-13T03:56:42.732Z,75.25
2023-01-13T03:59:14.365Z,75.44
2023-01-13T04:02:01.569Z,74.48
2023-01-13T04:04:34.770Z,75.12
2023-01-13T04:07:28.761Z,74.98
2023-01-13T04:10:02.519Z,75.26
2023-01-13T04:12:51.985Z,75.20
2023-01-13T04:15:22.061Z,75.02
2023-01-13T04:17:48.426Z,74.82
2023-01-13T04:20:15.242Z,75.14
2023-01-13T04:22:41.580Z,75.33
2023-01-13T04:25:09.024Z,75.47
2023-01-13T04:27:35.397Z,74.78
2023-01-13T04:30:01.792Z,75.34
2023-01-13T04:32:28.156Z,75.30
2023-01-13T04:34:54.544Z,75.20
2023-01-13T04:37:21.188Z,75.22
2023-01-13T04:39:47.579Z,74.69
2023-01-13T04:42:13.984Z,75.14
2023-01-13T04:44:40.299Z,75.58
2023-01-13T04:47:06.668Z,73.92
2023-01-13T04:49:33.229Z,73.43
2023-01-13T04:51:59.640Z,73.80
2023-01-13T04:54:25.991Z,73.88
2023-01-13T04:56:52.343Z,73.38
2023-01-13T04:59:18.734Z,73.42
2023-01-13T05:01:45.192Z,73.03
2023-01-13T05:04:11.789Z,73.66
2023-01-13T05:06:38.184Z,72.97
2023-01-13T05:09:04.589Z,73.02
2023-01-13T05:11:49.659Z,73.79
2023-01-13T05:14:34.953Z,73.54
2023-01-13T05:17:01.783Z,72.96
2023-01-13T05:19:33.636Z,73.18
2023-01-13T05:22:19.693Z,73.05
2023-01-13T05:25:05.156Z,72.33
2023-01-13T05:27:32.651Z,72.42
2023-01-13T05:29:59.346Z,73.00
2023-01-13T05:32:27.983Z,72.33
2023-01-13T05:34:55.666Z,72.45
2023-01-13T05:37:23.083Z,72.47
2023-01-13T05:40:08.073Z,72.11
2023-01-13T05:42:53.337Z,72.17
2023-01-13T05:45:19.725Z,72.90
2023-01-13T05:47:46.097Z,72.11
2023-01-13T05:50:12.583Z,71.52
2023-01-13T05:52:39.043Z,72.29
2023-01-13T05:55:05.945Z,71.10
2023-01-13T05:57:32.313Z,71.71
2023-01-13T05:59:58.671Z,71.27
2023-01-13T06:02:26.466Z,70.85
2023-01-13T06:04:53.215Z,71.49
2023-01-13T06:07:19.648Z,70.88
2023-01-13T06:09:45.990Z,71.07
2023-01-13T06:12:13.075Z,70.95
2023-01-13T06:14:42.580Z,70.71
2023-01-13T06:17:10.657Z,70.72
2023-01-13T06:19:37.395Z,71.40
2023-01-13T06:22:11.692Z,70.97
2023-01-13T06:24:38.050Z,70.99
2023-01-13T06:27:06.494Z,71.41
2023-01-13T06:29:33.455Z,70.88
2023-01-13T06:32:04.920Z,71.68
2023-01-13T06:34:32.118Z,70.99
2023-01-13T06:36:58.705Z,71.35
2023-01-13T06:39:30.597Z,70.39
2023-01-13T06:42:17.109Z,71.00
2023-01-13T06:44:45.210Z,70.99
2023-01-13T06:47:11.675Z,70.14
2023-01-13T06:49:38.025Z,70.60
2023-01-13T06:52:04.637Z,71.03
2023-01-13T06:54:31.084Z,71.35
2023-01-13T06:56:57.473Z,70.72
2023-01-13T06:59:25.137Z,70.78
2023-01-13T07:01:51.614Z,71.05
2023-01-13T07:04:18.815Z,70.99
2023-01-13T07:06:45.351Z,70.67
2023-01-13T07:09:11.811Z,70.97
2023-01-13T07:11:38.242Z,70.49
2023-01-13T07:14:23.421Z,70.28
2023-01-13T07:16:52.197Z,70.78
2023-01-13T07:19:23.582Z,70.68
2023-01-13T07:21:52.064Z,70.18
2023-01-13T07:24:19.349Z,71.22
2023-01-13T07:26:46.093Z,70.49
2023-01-13T07:29:12.672Z,71.24
2023-01-13T07:31:39.765Z,71.60
2023-01-13T07:34:07.336Z,71.17
2023-01-13T07:36:34.072Z,71.62
2023-01-13T07:39:00.826Z,71.20
2023-01-13T07:41:45.884Z,71.15
2023-01-13T07:44:12.387Z,71.57
2023-01-13T07:46:39.418Z,71.57
2023-01-13T07:49:06.805Z,71.67
2023-01-13T07:51:37.369Z,71.80
2023-01-13T07:54:04.004Z,71.30
2023-01-13T07:56:30.354Z,71.91
2023-01-13T07:58:59.261Z,71.92
2023-01-13T08:01:27.671Z,71.88
2023-01-13T08:03:56.118Z,71.46
2023-01-13T08:06:22.569Z,72.23
2023-01-13T08:08:49.120Z,72.21
2023-01-13T08:11:15.524Z,72.15
2023-01-13T08:13:41.885Z,72.14
2023-01-13T08:16:11.490Z,71.63
2023-01-13T08:18:39.128Z,71.36
2023-01-13T08:21:09.026Z,71.84
2023-01-13T08:23:36.090Z,71.09
2023-01-13T08:26:07.106Z,71.44
2023-01-13T08:28:33.930Z,71.03
2023-01-13T08:31:02.401Z,71.36
2023-01-13T08:33:29.563Z,71.91
2023-01-13T08:35:56.277Z,71.07
2023-01-13T08:38:23.634Z,71.60
2023-01-13T08:40:50.660Z,71.06
2023-01-13T08:43:16.998Z,71.48
2023-01-13T08:45:43.444Z,71.41
2023-01-13T08:48:09.939Z,71.78
2023-01-13T08:50:36.286Z,71.81
2023-01-13T08:53:02.709Z,71.47
2023-01-13T08:55:29.101Z,71.99
2023-01-13T08:58:06.449Z,72.59
2023-01-13T09:00:40.900Z,70.86
2023-01-13T09:03:07.261Z,71.33
2023-01-13T09:05:35.342Z,71.50
2023-01-13T09:08:01.711Z,71.69
2023-01-13T09:10:28.095Z,72.15
2023-01-13T09:13:12.609Z,72.13
2023-01-13T09:15:44.940Z,71.88
2023-01-13T09:18:12.250Z,72.10
2023-01-13T09:20:39.335Z,72.56
2023-01-13T09:23:08.803Z,72.54
2023-01-13T09:25:39.048Z,72.35
2023-01-13T09:28:05.891Z,72.46
2023-01-13T09:30:32.377Z,72.87
2023-01-13T09:33:18.271Z,73.04
2023-01-13T09:35:44.687Z,73.03
2023-01-13T09:38:11.090Z,72.92
2023-01-13T09:40:39.592Z,74.06
2023-01-13T09:43:36.783Z,74.66
2023-01-13T09:46:34.204Z,74.63
2023-01-13T09:49:03.476Z,76.39
2023-01-13T09:51:45.961Z,77.63
2023-01-13T09:54:27.805Z,76.77
2023-01-13T09:56:54.229Z,76.05
2023-01-13T09:59:20.657Z,75.79
2023-01-13T10:01:53.108Z,75.65
2023-01-13T10:04:19.744Z,75.42
2023-01-13T10:06:52.484Z,75.13
2023-01-13T10:09:25.699Z,75.33
2023-01-13T10:12:14.525Z,75.35
2023-01-13T10:14:54.803Z,75.07
2023-01-13T10:17:32.313Z,74.20
2023-01-13T10:20:17.082Z,73.55
2023-01-13T10:22:59.137Z,73.92
2023-01-13T10:25:40.273Z,73.83
2023-01-13T10:28:13.079Z,73.90
2023-01-13T10:30:42.195Z,72.82
2023-01-13T10:33:34.625Z,72.74
2023-01-13T10:36:14.360Z,73.16
2023-01-13T10:38:45.982Z,71.76
2023-01-13T10:41:15.107Z,71.29
2023-01-13T10:44:07.263Z,71.45
2023-01-13T10:46:49.900Z,70.39
2023-01-13T10:49:36.561Z,70.33
2023-01-13T10:52:23.661Z,70.77
2023-01-13T10:54:54.934Z,71.04
2023-01-13T10:57:27.202Z,70.48
2023-01-13T10:59:54.870Z,70.32
2023-01-13T11:02:30.673Z,71.13
2023-01-13T11:04:58.085Z,70.45
2023-01-13T11:07:34.455Z,71.27
2023-01-13T11:10:09.834Z,71.17
2023-01-13T11:12:51.897Z,73.00
2023-01-13T11:15:25.047Z,74.63
2023-01-13T11:18:00.488Z,76.46
2023-01-13T11:20:42.674Z,77.94
2023-01-13T11:23:21.845Z,78.30
2023-01-13T11:25:54.616Z,79.01
2023-01-13T11:28:29.367Z,80.85
2023-01-13T11:31:25.428Z,81.03
2023-01-13T11:33:59.885Z,82.89
2023-01-13T11:36:39.070Z,83.47
2023-01-13T11:39:21.312Z,84.10
2023-01-13T11:42:15.573Z,84.10
2023-01-13T11:44:58.481Z,84.47
2023-01-13T11:47:26.872Z,84.91
2023-01-13T11:49:53.760Z,84.50
2023-01-13T11:52:47.765Z,86.40
2023-01-13T11:55:34.780Z,86.17
2023-01-13T11:58:26.708Z,87.61
2023-01-13T12:01:05.021Z,87.99
2023-01-13T12:03:45.357Z,88.32
2023-01-13T12:06:20.626Z,88.15
2023-01-13T12:08:47.543Z,89.52
2023-01-13T12:11:27.828Z,88.91
2023-01-13T12:14:17.496Z,87.38
2023-01-13T12:16:50.545Z,87.90
2023-01-13T12:19:32.278Z,88.40
2023-01-13T12:22:20.468Z,87.11
2023-01-13T12:24:58.061Z,86.92
2023-01-13T12:27:44.865Z,88.10
2023-01-13T12:30:45.722Z,87.39
2023-01-13T12:33:28.835Z,87.35
2023-01-13T12:36:07.473Z,87.82
2023-01-13T12:38:45.841Z,86.92
2023-01-13T12:41:36.700Z,87.57
2023-01-13T12:44:19.283Z,87.05
2023-01-13T12:46:58.737Z,87.79
2023-01-13T12:49:35.320Z,88.39
2023-01-13T12:52:12.466Z,88.46
2023-01-13T12:54:44.909Z,87.07
2023-01-13T12:57:21.682Z,86.31
2023-01-13T13:00:00.052Z,87.56
2023-01-13T13:02:38.220Z,86.86
2023-01-13T13:05:27.689Z,87.31
2023-01-13T13:08:21.456Z,87.07
2023-01-13T13:10:57.868Z,86.28
2023-01-13T13:13:40.954Z,87.38
2023-01-13T13:16:25.998Z,86.52
2023-01-13T13:18:53.442Z,87.03
2023-01-13T13:21:19.805Z,87.73
2023-01-13T13:24:03.164Z,88.82
2023-01-13T13:26:45.521Z,88.37
2023-01-13T13:29:37.039Z,87.47
2023-01-13T13:32:23.861Z,88.43
2023-01-13T13:35:14.044Z,88.11
2023-01-13T13:38:08.232Z,86.81
2023-01-13T13:40:59.099Z,87.37
2023-01-13T13:43:45.909Z,87.32
2023-01-13T13:46:48.877Z,87.60
2023-01-13T13:49:16.366Z,86.41
2023-01-13T13:52:03.302Z,86.16
2023-01-13T13:54:31.416Z,86.79
2023-01-13T13:56:59.097Z,88.03
2023-01-13T13:59:28.066Z,86.93
2023-01-13T14:02:03.779Z,85.82
2023-01-13T14:04:33.269Z,86.63
2023-01-13T14:07:04.807Z,85.93
2023-01-13T14:09:41.351Z,86.08
2023-01-13T14:12:20.132Z,85.92
2023-01-13T14:14:47.880Z,86.26
2023-01-13T14:17:34.471Z,86.63
2023-01-13T14:20:07.871Z,86.19
2023-01-13T14:22:34.562Z,85.97
2023-01-13T14:25:02.019Z,86.51
2023-01-13T14:27:30.583Z,87.50
2023-01-13T14:29:59.969Z,86.86
2023-01-13T14:32:33.558Z,87.56
2023-01-13T14:35:00.053Z,87.01
2023-01-13T14:37:37.263Z,87.22
2023-01-13T14:40:04.108Z,87.58
2023-01-13T14:42:31.563Z,85.92
2023-01-13T14:44:58.544Z,86.29
2023-01-13T14:47:29.164Z,86.29
2023-01-13T14:50:10.530Z,86.78
2023-01-13T14:52:50.448Z,86.04
2023-01-13T14:55:38.573Z,84.14
2023-01-13T14:58:22.925Z,84.53
2023-01-13T15:00:51.308Z,84.97
2023-01-13T15:03:20.509Z,84.92
2023-01-13T15:05:49.912Z,85.62
2023-01-13T15:08:17.200Z,83.37
2023-01-13T15:10:59.614Z,84.53
2023-01-13T15:13:28.960Z,85.44
2023-01-13T15:15:57.623Z,85.57
2023-01-13T15:18:24.118Z,85.91
2023-01-13T15:20:53.401Z,85.01
2023-01-13T15:23:20.546Z,85.47
2023-01-13T15:25:48.166Z,85.37
2023-01-13T15:28:19.969Z,85.22
2023-01-13T15:30:47.293Z,85.64
2023-01-13T15:33:14.725Z,85.07
2023-01-13T15:35:49.886Z,85.40
2023-01-13T15:38:18.915Z,85.39
2023-01-13T15:40:46.818Z,85.01
2023-01-13T15:43:50.015Z,85.41
2023-01-13T15:46:38.939Z,84.96
2023-01-13T15:49:23.440Z,84.89
2023-01-13T15:51:49.986Z,85.55
2023-01-13T15:54:16.430Z,85.41
2023-01-13T15:56:42.780Z,85.76
2023-01-13T15:59:17.328Z,86.20
2023-01-13T16:01:44.358Z,86.87
2023-01-13T16:04:10.699Z,86.50
2023-01-13T16:06:37.248Z,86.16
2023-01-13T16:09:05.557Z,85.73
2023-01-13T16:11:31.988Z,85.16
2023-01-13T16:13:58.588Z,84.61
2023-01-13T16:16:26.858Z,84.40
2023-01-13T16:18:53.346Z,83.44
2023-01-13T16:21:20.904Z,83.88
2023-01-13T16:23:48.877Z,83.66
2023-01-13T16:26:26.421Z,82.60
2023-01-13T16:28:55.469Z,83.54
2023-01-13T16:31:21.842Z,82.13
2023-01-13T16:33:48.444Z,82.09
2023-01-13T16:36:17.088Z,82.01
2023-01-13T16:38:43.698Z,80.50
2023-01-13T16:41:10.381Z,80.74
2023-01-13T16:43:37.533Z,80.43
2023-01-13T16:46:16.451Z,80.42
2023-01-13T16:48:42.889Z,81.75
2023-01-13T16:51:09.353Z,82.15
2023-01-13T16:53:35.808Z,82.49
2023-01-13T16:56:02.231Z,82.60
2023-01-13T16:58:28.703Z,81.57
2023-01-13T17:00:55.325Z,81.54
2023-01-13T17:03:21.876Z,81.51
2023-01-13T17:05:48.302Z,81.11
2023-01-13T17:08:17.652Z,81.40
2023-01-13T17:10:45.715Z,81.58
2023-01-13T17:13:16.447Z,81.45
2023-01-13T17:15:44.393Z,81.93
2023-01-13T17:18:13.075Z,82.08
2023-01-13T17:20:39.506Z,81.59
2023-01-13T17:23:05.940Z,80.88
2023-01-13T17:25:32.379Z,81.07
2023-01-13T17:27:59.002Z,80.33
2023-01-13T17:30:25.371Z,79.65
2023-01-13T17:32:51.809Z,79.45
2023-01-13T17:35:24.482Z,80.00
2023-01-13T17:37:54.200Z,80.00
2023-01-13T17:40:20.888Z,80.62
2023-01-13T17:42:47.338Z,81.36
2023-01-13T17:45:13.828Z,80.14
2023-01-13T17:47:40.276Z,79.94
2023-01-13T17:50:07.207Z,79.95
2023-01-13T17:52:34.388Z,79.87
2023-01-13T17:55:00.821Z,78.08
2023-01-13T17:57:28.336Z,78.43
2023-01-13T17:59:54.877Z,79.14
2023-01-13T18:02:21.403Z,78.50
2023-01-13T18:04:47.998Z,78.28
2023-01-13T18:07:14.360Z,77.84
2023-01-13T18:09:40.773Z,78.41
2023-01-13T18:12:07.338Z,78.35
2023-01-13T18:14:34.601Z,78.38
2023-01-13T18:17:01.244Z,78.41
2023-01-13T18:19:46.397Z,78.30
2023-01-13T18:22:32.803Z,79.11
2023-01-13T18:25:18.095Z,79.03
2023-01-13T18:27:44.711Z,79.10
2023-01-13T18:30:12.404Z,79.12
2023-01-13T18:32:39.344Z,79.10
2023-01-13T18:35:10.192Z,79.90
2023-01-13T18:37:39.867Z,79.79
2023-01-13T18:40:09.322Z,79.69
2023-01-13T18:42:51.392Z,80.29
2023-01-13T18:45:24.135Z,80.40
2023-01-13T18:47:53.043Z,80.13
2023-01-13T18:50:19.514Z,80.13
2023-01-13T18:52:46.018Z,80.40
2023-01-13T18:55:12.875Z,80.54
2023-01-13T18:57:42.667Z,80.30
2023-01-13T19:00:16.656Z,80.49
2023-01-13T19:02:44.386Z,80.76
2023-01-13T19:05:10.999Z,81.49
2023-01-13T19:07:37.465Z,81.33
2023-01-13T19:10:05.531Z,81.35
2023-01-13T19:12:33.588Z,81.02
2023-01-13T19:15:01.919Z,81.29
2023-01-13T19:17:33.468Z,81.44
2023-01-13T19:20:00.535Z,81.36
2023-01-13T19:22:30.760Z,81.32
2023-01-13T19:24:58.389Z,81.68
2023-01-13T19:27:27.421Z,81.67
2023-01-13T19:29:57.375Z,81.98
2023-01-13T19:32:24.153Z,81.53
2023-01-13T19:34:51.063Z,81.47
2023-01-13T19:37:18.740Z,81.59
2023-01-13T19:39:45.233Z,81.28
2023-01-13T19:42:30.855Z,81.62
2023-01-13T19:45:16.115Z,81.64
2023-01-13T19:47:45.075Z,81.66
2023-01-13T19:50:13.445Z,82.65
2023-01-13T19:52:40.456Z,82.55
2023-01-13T19:55:07.125Z,82.21
2023-01-13T19:57:33.614Z,82.54
2023-01-13T20:00:00.187Z,81.95
2023-01-13T20:02:31.427Z,82.27
2023-01-13T20:04:59.135Z,82.97
2023-01-13T20:07:28.138Z,83.10
2023-01-13T20:09:56.338Z,82.83
2023-01-13T20:12:24.368Z,82.55
2023-01-13T20:14:51.213Z,83.44
2023-01-13T20:17:20.319Z,82.79
2023-01-13T20:19:46.878Z,83.63
2023-01-13T20:22:14.017Z,83.92
2023-01-13T20:24:40.545Z,83.90
2023-01-13T20:27:07.299Z,84.13
2023-01-13T20:29:33.895Z,84.35
2023-01-13T20:32:00.380Z,84.35
2023-01-13T20:34:26.836Z,84.37
2023-01-13T20:36:53.529Z,84.13
2023-01-13T20:39:23.430Z,84.27
2023-01-13T20:42:08.587Z,84.19
2023-01-13T20:44:35.391Z,84.15
2023-01-13T20:47:02.818Z,83.86
2023-01-13T20:49:30.274Z,84.70
2023-01-13T20:51:57.748Z,84.21
2023-01-13T20:54:25.020Z,83.94
2023-01-13T20:56:51.428Z,83.65
2023-01-13T20:59:17.926Z,83.99
2023-01-13T21:01:44.432Z,84.17
2023-01-13T21:04:11.114Z,83.89
2023-01-13T21:06:37.610Z,83.57
2023-01-13T21:09:04.142Z,83.97
2023-01-13T21:11:49.179Z,84.19
2023-01-13T21:14:37.529Z,84.44
2023-01-13T21:17:04.245Z,83.61
2023-01-13T21:19:30.716Z,84.21
2023-01-13T21:21:57.230Z,84.30
2023-01-13T21:24:24.760Z,84.68
2023-01-13T21:27:00.624Z,84.89
2023-01-13T21:29:27.039Z,84.72
2023-01-13T21:31:54.371Z,84.30
2023-01-13T21:34:20.908Z,84.89
2023-01-13T21:36:47.299Z,85.29
2023-01-13T21:39:16.072Z,84.21
2023-01-13T21:42:01.205Z,84.13
2023-01-13T21:44:46.138Z,84.45
2023-01-13T21:47:36.134Z,83.81
2023-01-13T21:50:04.451Z,84.15
2023-01-13T21:52:30.782Z,83.68
2023-01-13T21:55:15.555Z,83.49
2023-01-13T21:57:45.436Z,82.84
2023-01-13T22:00:12.324Z,83.84
2023-01-13T22:02:38.791Z,84.12
2023-01-13T22:05:08.968Z,83.95
2023-01-13T22:07:37.074Z,84.05
2023-01-13T22:10:05.758Z,83.53
2023-01-13T22:12:32.515Z,84.00
2023-01-13T22:14:58.879Z,84.04
2023-01-13T22:17:27.575Z,84.06
2023-01-13T22:19:57.059Z,83.88
2023-01-13T22:22:24.931Z,84.39
2023-01-13T22:24:53.002Z,84.25
2023-01-13T22:27:22.200Z,84.02
2023-01-13T22:29:49.614Z,84.64
2023-01-13T22:32:16.751Z,83.46
2023-01-13T22:34:43.277Z,84.35
2023-01-13T22:37:10.104Z,84.36
2023-01-13T22:39:36.551Z,84.45
2023-01-13T22:42:03.401Z,83.80
2023-01-13T22:44:29.869Z,83.82
2023-01-13T22:46:56.252Z,83.73
2023-01-13T22:49:23.010Z,84.31
2023-01-13T22:51:49.458Z,84.60
2023-01-13T22:54:18.177Z,83.80
2023-01-13T22:56:44.577Z,84.55
2023-01-13T22:59:13.219Z,83.46
2023-01-13T23:01:40.881Z,84.41
2023-01-13T23:04:07.530Z,84.56
2023-01-13T23:06:34.818Z,84.40
2023-01-13T23:09:01.619Z,84.53
2023-01-13T23:11:30.275Z,84.59
2023-01-13T23:13:59.631Z,85.77
2023-01-13T23:16:27.924Z,85.59
2023-01-13T23:18:54.496Z,85.66
2023-01-13T23:21:26.774Z,85.44
2023-01-13T23:23:54.124Z,86.08
2023-01-13T23:26:21.489Z,86.05
2023-01-13T23:28:48.248Z,87.37
2023-01-13T23:31:20.807Z,87.48
2023-01-13T23:33:48.487Z,87.33
2023-01-13T23:36:20.658Z,88.18
2023-01-13T23:38:47.690Z,88.50
2023-01-13T23:41:16.908Z,88.69
2023-01-13T23:43:43.773Z,89.32
2023-01-13T23:46:12.701Z,89.53
2023-01-13T23:48:39.472Z,89.42
2023-01-13T23:51:10.458Z,89.81
2023-01-13T23:53:43.733Z,90.75
2023-01-13T23:56:16.516Z,91.01
2023-01-13T23:58:43.983Z,91.19
